sensor_id;sensor_type;location;lat;lon;timestamp;temperature;humidity
20546;DHT22;10431;50.228;9.112;2023-05-02T00:02:19;19.00;88.10
20546;DHT22;10431;50.228;9.112;2023-05-02T00:04:46;19.00;88.90
20546;DHT22;10431;50.228;9.112;2023-05-02T00:07:12;19.00;88.10
20546;DHT22;10431;50.228;9.112;2023-05-02T00:09:38;18.90;88.10
20546;DHT22;10431;50.228;9.112;2023-05-02T00:12:05;18.90;88.10
20546;DHT22;10431;50.228;9.112;2023-05-02T00:14:31;18.90;88.10
20546;DHT22;10431;50.228;9.112;2023-05-02T00:16:57;18.90;88.10
20546;DHT22;10431;50.228;9.112;2023-05-02T00:19:24;18.90;88.10
20546;DHT22;10431;50.228;9.112;2023-05-02T00:21:50;19.00;88.10
20546;DHT22;10431;50.228;9.112;2023-05-02T00:24:16;18.90;88.10
20546;DHT22;10431;50.228;9.112;2023-05-02T00:26:43;18.90;88.00
20546;DHT22;10431;50.228;9.112;2023-05-02T00:29:09;18.90;88.00
20546;DHT22;10431;50.228;9.112;2023-05-02T00:31:35;18.90;88.00
20546;DHT22;10431;50.228;9.112;2023-05-02T00:34:01;18.90;88.00
20546;DHT22;10431;50.228;9.112;2023-05-02T00:36:28;18.90;88.10
20546;DHT22;10431;50.228;9.112;2023-05-02T00:38:54;18.90;88.00
20546;DHT22;10431;50.228;9.112;2023-05-02T00:41:20;18.90;88.00
20546;DHT22;10431;50.228;9.112;2023-05-02T00:43:46;18.90;88.00
20546;DHT22;10431;50.228;9.112;2023-05-02T00:46:13;18.90;88.00
20546;DHT22;10431;50.228;9.112;2023-05-02T00:48:40;18.90;88.10
20546;DHT22;10431;50.228;9.112;2023-05-02T00:51:06;18.90;88.00
20546;DHT22;10431;50.228;9.112;2023-05-02T00:53:34;18.90;88.00
20546;DHT22;10431;50.228;9.112;2023-05-02T00:56:01;18.90;88.00
20546;DHT22;10431;50.228;9.112;2023-05-02T00:58:28;18.90;88.00
20546;DHT22;10431;50.228;9.112;2023-05-02T01:01:25;18.90;88.00
20546;DHT22;10431;50.228;9.112;2023-05-02T01:04:13;18.90;88.00
20546;DHT22;10431;50.228;9.112;2023-05-02T01:14:41;18.90;88.00
20546;DHT22;10431;50.228;9.112;2023-05-02T01:17:13;18.90;88.00
20546;DHT22;10431;50.228;9.112;2023-05-02T01:19:58;18.90;88.00
20546;DHT22;10431;50.228;9.112;2023-05-02T01:22:27;18.90;88.00
20546;DHT22;10431;50.228;9.112;2023-05-02T01:30:21;18.90;88.00
20546;DHT22;10431;50.228;9.112;2023-05-02T01:32:51;18.90;87.90
20546;DHT22;10431;50.228;9.112;2023-05-02T01:35:20;18.90;87.90
20546;DHT22;10431;50.228;9.112;2023-05-02T01:37:47;18.90;87.90
20546;DHT22;10431;50.228;9.112;2023-05-02T01:40:17;18.90;87.80
20546;DHT22;10431;50.228;9.112;2023-05-02T01:42:50;18.90;87.80
20546;DHT22;10431;50.228;9.112;2023-05-02T01:45:18;18.90;87.80
20546;DHT22;10431;50.228;9.112;2023-05-02T01:47:45;18.90;87.80
20546;DHT22;10431;50.228;9.112;2023-05-02T01:50:22;18.90;87.70
20546;DHT22;10431;50.228;9.112;2023-05-02T01:52:50;18.90;87.80
20546;DHT22;10431;50.228;9.112;2023-05-02T01:55:18;18.90;87.80
20546;DHT22;10431;50.228;9.112;2023-05-02T01:57:46;18.90;87.80
20546;DHT22;10431;50.228;9.112;2023-05-02T02:00:15;18.90;87.70
20546;DHT22;10431;50.228;9.112;2023-05-02T02:02:44;18.90;87.70
20546;DHT22;10431;50.228;9.112;2023-05-02T02:05:13;18.90;87.70
20546;DHT22;10431;50.228;9.112;2023-05-02T02:07:42;18.90;87.70
20546;DHT22;10431;50.228;9.112;2023-05-02T02:10:08;18.90;87.70
20546;DHT22;10431;50.228;9.112;2023-05-02T02:12:39;18.90;87.80
20546;DHT22;10431;50.228;9.112;2023-05-02T02:15:18;18.90;87.70
20546;DHT22;10431;50.228;9.112;2023-05-02T02:17:48;18.90;87.70
20546;DHT22;10431;50.228;9.112;2023-05-02T02:20:21;18.90;87.70
20546;DHT22;10431;50.228;9.112;2023-05-02T02:22:48;18.90;87.70
20546;DHT22;10431;50.228;9.112;2023-05-02T02:25:15;18.90;87.70
20546;DHT22;10431;50.228;9.112;2023-05-02T02:27:42;18.90;87.70
20546;DHT22;10431;50.228;9.112;2023-05-02T02:30:09;18.90;87.70
20546;DHT22;10431;50.228;9.112;2023-05-02T02:32:37;18.90;87.70
20546;DHT22;10431;50.228;9.112;2023-05-02T02:35:04;18.80;87.70
20546;DHT22;10431;50.228;9.112;2023-05-02T02:37:50;18.90;87.70
20546;DHT22;10431;50.228;9.112;2023-05-02T02:40:29;18.90;87.70
20546;DHT22;10431;50.228;9.112;2023-05-02T02:43:08;18.80;87.70
20546;DHT22;10431;50.228;9.112;2023-05-02T02:53:57;18.90;87.70
20546;DHT22;10431;50.228;9.112;2023-05-02T02:56:29;18.90;87.70
20546;DHT22;10431;50.228;9.112;2023-05-02T02:59:08;18.90;87.70
20546;DHT22;10431;50.228;9.112;2023-05-02T03:01:39;18.80;87.60
20546;DHT22;10431;50.228;9.112;2023-05-02T03:04:07;18.80;87.60
20546;DHT22;10431;50.228;9.112;2023-05-02T03:06:36;18.90;87.70
20546;DHT22;10431;50.228;9.112;2023-05-02T03:09:03;18.80;87.60
20546;DHT22;10431;50.228;9.112;2023-05-02T03:11:30;18.80;87.70
20546;DHT22;10431;50.228;9.112;2023-05-02T03:13:57;18.90;87.70
20546;DHT22;10431;50.228;9.112;2023-05-02T03:16:38;18.90;87.70
20546;DHT22;10431;50.228;9.112;2023-05-02T03:19:07;18.80;87.70
20546;DHT22;10431;50.228;9.112;2023-05-02T03:21:34;18.90;87.70
20546;DHT22;10431;50.228;9.112;2023-05-02T03:24:07;18.90;87.70
20546;DHT22;10431;50.228;9.112;2023-05-02T03:26:34;18.80;87.60
20546;DHT22;10431;50.228;9.112;2023-05-02T03:29:00;18.80;87.50
20546;DHT22;10431;50.228;9.112;2023-05-02T03:31:32;18.90;87.60
20546;DHT22;10431;50.228;9.112;2023-05-02T03:33:59;18.80;87.50
20546;DHT22;10431;50.228;9.112;2023-05-02T03:36:26;18.80;87.50
20546;DHT22;10431;50.228;9.112;2023-05-02T03:38:53;18.80;87.50
20546;DHT22;10431;50.228;9.112;2023-05-02T03:41:20;18.80;87.50
20546;DHT22;10431;50.228;9.112;2023-05-02T03:43:53;18.80;87.50
20546;DHT22;10431;50.228;9.112;2023-05-02T03:46:22;18.80;87.50
20546;DHT22;10431;50.228;9.112;2023-05-02T03:48:48;18.90;87.60
20546;DHT22;10431;50.228;9.112;2023-05-02T03:51:16;18.80;87.50
20546;DHT22;10431;50.228;9.112;2023-05-02T03:53:46;18.80;87.50
20546;DHT22;10431;50.228;9.112;2023-05-02T03:56:16;18.80;87.50
20546;DHT22;10431;50.228;9.112;2023-05-02T03:58:49;18.80;87.50
20546;DHT22;10431;50.228;9.112;2023-05-02T04:01:19;18.80;87.50
20546;DHT22;10431;50.228;9.112;2023-05-02T04:03:49;18.80;87.50
20546;DHT22;10431;50.228;9.112;2023-05-02T04:06:17;18.90;87.60
20546;DHT22;10431;50.228;9.112;2023-05-02T04:08:48;18.80;87.50
20546;DHT22;10431;50.228;9.112;2023-05-02T04:11:14;18.80;87.50
20546;DHT22;10431;50.228;9.112;2023-05-02T04:13:41;18.80;87.50
20546;DHT22;10431;50.228;9.112;2023-05-02T04:16:08;18.90;87.60
20546;DHT22;10431;50.228;9.112;2023-05-02T04:18:35;18.80;87.50
20546;DHT22;10431;50.228;9.112;2023-05-02T04:21:06;18.80;87.50
20546;DHT22;10431;50.228;9.112;2023-05-02T04:23:33;18.90;87.60
20546;DHT22;10431;50.228;9.112;2023-05-02T04:26:01;18.90;87.60
20546;DHT22;10431;50.228;9.112;2023-05-02T04:28:35;18.80;87.50
20546;DHT22;10431;50.228;9.112;2023-05-02T04:31:02;18.80;87.50
20546;DHT22;10431;50.228;9.112;2023-05-02T04:33:29;18.80;87.50
20546;DHT22;10431;50.228;9.112;2023-05-02T04:35:56;18.80;87.60
20546;DHT22;10431;50.228;9.112;2023-05-02T04:38:23;18.80;87.50
20546;DHT22;10431;50.228;9.112;2023-05-02T04:40:50;18.80;87.50
20546;DHT22;10431;50.228;9.112;2023-05-02T04:43:20;18.80;87.50
20546;DHT22;10431;50.228;9.112;2023-05-02T04:45:52;18.80;87.50
20546;DHT22;10431;50.228;9.112;2023-05-02T04:48:25;18.80;87.50
20546;DHT22;10431;50.228;9.112;2023-05-02T04:50:52;18.80;87.50
20546;DHT22;10431;50.228;9.112;2023-05-02T04:53:23;18.80;87.50
20546;DHT22;10431;50.228;9.112;2023-05-02T04:55:49;18.80;87.40
20546;DHT22;10431;50.228;9.112;2023-05-02T04:58:16;18.80;87.40
20546;DHT22;10431;50.228;9.112;2023-05-02T05:00:45;18.80;87.40
20546;DHT22;10431;50.228;9.112;2023-05-02T05:03:12;18.90;87.50
20546;DHT22;10431;50.228;9.112;2023-05-02T05:05:38;18.90;87.40
20546;DHT22;10431;50.228;9.112;2023-05-02T05:08:07;18.90;87.30
20546;DHT22;10431;50.228;9.112;2023-05-02T05:10:36;18.90;87.50
20546;DHT22;10431;50.228;9.112;2023-05-02T05:13:02;18.90;87.40
20546;DHT22;10431;50.228;9.112;2023-05-02T05:15:31;19.00;87.30
20546;DHT22;10431;50.228;9.112;2023-05-02T05:18:00;19.00;87.30
20546;DHT22;10431;50.228;9.112;2023-05-02T05:20:27;18.20;84.70
20546;DHT22;10431;50.228;9.112;2023-05-02T05:22:56;17.80;85.70
20546;DHT22;10431;50.228;9.112;2023-05-02T05:25:27;17.50;86.10
20546;DHT22;10431;50.228;9.112;2023-05-02T05:27:54;17.20;86.90
20546;DHT22;10431;50.228;9.112;2023-05-02T05:30:21;17.10;87.20
20546;DHT22;10431;50.228;9.112;2023-05-02T05:32:47;16.60;88.00
20546;DHT22;10431;50.228;9.112;2023-05-02T05:35:13;16.40;89.10
20546;DHT22;10431;50.228;9.112;2023-05-02T05:37:40;16.90;88.90
20546;DHT22;10431;50.228;9.112;2023-05-02T05:40:09;17.50;87.70
20546;DHT22;10431;50.228;9.112;2023-05-02T05:42:37;17.90;86.50
20546;DHT22;10431;50.228;9.112;2023-05-02T05:45:09;18.30;85.40
20546;DHT22;10431;50.228;9.112;2023-05-02T05:47:35;18.70;84.60
20546;DHT22;10431;50.228;9.112;2023-05-02T05:50:01;19.00;83.90
20546;DHT22;10431;50.228;9.112;2023-05-02T05:52:29;19.20;83.50
20546;DHT22;10431;50.228;9.112;2023-05-02T05:54:58;19.30;83.20
20546;DHT22;10431;50.228;9.112;2023-05-02T05:57:26;19.40;83.10
20546;DHT22;10431;50.228;9.112;2023-05-02T05:59:54;19.10;83.00
20546;DHT22;10431;50.228;9.112;2023-05-02T06:02:20;18.40;84.90
20546;DHT22;10431;50.228;9.112;2023-05-02T06:04:47;17.90;86.30
20546;DHT22;10431;50.228;9.112;2023-05-02T06:07:16;17.50;87.60
20546;DHT22;10431;50.228;9.112;2023-05-02T06:09:44;17.50;88.30
20546;DHT22;10431;50.228;9.112;2023-05-02T06:12:10;17.50;88.50
20546;DHT22;10431;50.228;9.112;2023-05-02T06:14:37;17.80;87.90
20546;DHT22;10431;50.228;9.112;2023-05-02T06:17:03;18.20;87.30
20546;DHT22;10431;50.228;9.112;2023-05-02T06:19:29;18.60;86.40
20546;DHT22;10431;50.228;9.112;2023-05-02T06:21:55;18.90;85.80
20546;DHT22;10431;50.228;9.112;2023-05-02T06:24:21;19.10;85.40
20546;DHT22;10431;50.228;9.112;2023-05-02T06:26:47;19.20;85.20
20546;DHT22;10431;50.228;9.112;2023-05-02T06:29:13;19.20;85.10
20546;DHT22;10431;50.228;9.112;2023-05-02T06:31:39;19.20;85.10
20546;DHT22;10431;50.228;9.112;2023-05-02T06:34:05;19.30;85.30
20546;DHT22;10431;50.228;9.112;2023-05-02T06:36:31;19.30;85.20
20546;DHT22;10431;50.228;9.112;2023-05-02T06:38:58;19.30;85.30
20546;DHT22;10431;50.228;9.112;2023-05-02T06:41:23;19.30;85.40
20546;DHT22;10431;50.228;9.112;2023-05-02T06:43:49;19.30;85.70
20546;DHT22;10431;50.228;9.112;2023-05-02T06:46:16;19.30;86.00
20546;DHT22;10431;50.228;9.112;2023-05-02T06:48:43;19.20;86.10
20546;DHT22;10431;50.228;9.112;2023-05-02T06:51:09;19.20;86.20
20546;DHT22;10431;50.228;9.112;2023-05-02T06:53:36;19.20;86.40
20546;DHT22;10431;50.228;9.112;2023-05-02T06:56:02;19.10;86.40
20546;DHT22;10431;50.228;9.112;2023-05-02T06:58:28;19.10;86.50
20546;DHT22;10431;50.228;9.112;2023-05-02T07:00:54;19.10;86.60
20546;DHT22;10431;50.228;9.112;2023-05-02T07:03:20;19.10;86.50
20546;DHT22;10431;50.228;9.112;2023-05-02T07:05:46;19.20;86.40
20546;DHT22;10431;50.228;9.112;2023-05-02T07:08:12;19.20;86.20
20546;DHT22;10431;50.228;9.112;2023-05-02T07:10:38;19.30;86.30
20546;DHT22;10431;50.228;9.112;2023-05-02T07:13:04;19.20;86.20
20546;DHT22;10431;50.228;9.112;2023-05-02T07:15:30;19.20;86.40
20546;DHT22;10431;50.228;9.112;2023-05-02T07:17:56;19.20;86.30
20546;DHT22;10431;50.228;9.112;2023-05-02T07:20:22;19.30;86.20
20546;DHT22;10431;50.228;9.112;2023-05-02T07:22:49;19.30;86.20
20546;DHT22;10431;50.228;9.112;2023-05-02T07:25:15;19.30;86.20
20546;DHT22;10431;50.228;9.112;2023-05-02T07:27:41;19.30;86.20
20546;DHT22;10431;50.228;9.112;2023-05-02T07:30:07;19.30;86.10
20546;DHT22;10431;50.228;9.112;2023-05-02T07:32:33;19.30;86.10
20546;DHT22;10431;50.228;9.112;2023-05-02T07:34:59;19.30;86.00
20546;DHT22;10431;50.228;9.112;2023-05-02T07:37:30;19.20;85.60
20546;DHT22;10431;50.228;9.112;2023-05-02T07:39:56;19.10;85.90
20546;DHT22;10431;50.228;9.112;2023-05-02T07:42:27;19.10;85.80
20546;DHT22;10431;50.228;9.112;2023-05-02T07:44:53;19.20;85.80
20546;DHT22;10431;50.228;9.112;2023-05-02T07:47:19;19.20;85.90
20546;DHT22;10431;50.228;9.112;2023-05-02T07:49:49;19.20;86.00
20546;DHT22;10431;50.228;9.112;2023-05-02T07:52:15;19.20;86.20
20546;DHT22;10431;50.228;9.112;2023-05-02T07:54:41;19.20;86.40
20546;DHT22;10431;50.228;9.112;2023-05-02T07:57:07;19.20;86.50
20546;DHT22;10431;50.228;9.112;2023-05-02T07:59:33;19.20;86.80
20546;DHT22;10431;50.228;9.112;2023-05-02T08:01:59;19.10;87.10
20546;DHT22;10431;50.228;9.112;2023-05-02T08:04:25;19.10;87.00
20546;DHT22;10431;50.228;9.112;2023-05-02T08:06:51;19.10;87.40
20546;DHT22;10431;50.228;9.112;2023-05-02T08:09:17;18.90;85.10
20546;DHT22;10431;50.228;9.112;2023-05-02T08:11:43;18.80;86.30
20546;DHT22;10431;50.228;9.112;2023-05-02T08:14:09;18.80;86.80
20546;DHT22;10431;50.228;9.112;2023-05-02T08:16:35;18.80;87.00
20546;DHT22;10431;50.228;9.112;2023-05-02T08:19:01;18.90;87.00
20546;DHT22;10431;50.228;9.112;2023-05-02T08:21:27;18.80;85.00
20546;DHT22;10431;50.228;9.112;2023-05-02T08:23:56;18.40;84.70
20546;DHT22;10431;50.228;9.112;2023-05-02T08:26:22;18.50;85.40
20546;DHT22;10431;50.228;9.112;2023-05-02T08:28:50;18.60;85.20
20546;DHT22;10431;50.228;9.112;2023-05-02T08:31:16;18.60;84.60
20546;DHT22;10431;50.228;9.112;2023-05-02T08:33:42;18.60;84.00
20546;DHT22;10431;50.228;9.112;2023-05-02T08:36:12;18.60;83.60
20546;DHT22;10431;50.228;9.112;2023-05-02T08:38:38;18.60;83.30
20546;DHT22;10431;50.228;9.112;2023-05-02T08:43:37;18.60;83.20
20546;DHT22;10431;50.228;9.112;2023-05-02T08:46:04;18.60;83.20
20546;DHT22;10431;50.228;9.112;2023-05-02T08:48:32;18.60;83.10
20546;DHT22;10431;50.228;9.112;2023-05-02T08:51:00;18.60;83.30
20546;DHT22;10431;50.228;9.112;2023-05-02T08:53:27;18.70;83.50
20546;DHT22;10431;50.228;9.112;2023-05-02T08:55:54;18.80;83.70
20546;DHT22;10431;50.228;9.112;2023-05-02T08:58:20;18.80;83.70
20546;DHT22;10431;50.228;9.112;2023-05-02T09:00:46;18.90;84.00
20546;DHT22;10431;50.228;9.112;2023-05-02T09:05:46;18.90;84.10
20546;DHT22;10431;50.228;9.112;2023-05-02T09:08:20;18.90;84.10
20546;DHT22;10431;50.228;9.112;2023-05-02T09:10:46;19.00;84.30
20546;DHT22;10431;50.228;9.112;2023-05-02T09:18:41;19.10;84.40
20546;DHT22;10431;50.228;9.112;2023-05-02T09:21:08;19.10;84.40
20546;DHT22;10431;50.228;9.112;2023-05-02T09:26:10;19.00;83.90
20546;DHT22;10431;50.228;9.112;2023-05-02T09:28:37;19.00;83.70
20546;DHT22;10431;50.228;9.112;2023-05-02T09:31:07;19.00;83.50
20546;DHT22;10431;50.228;9.112;2023-05-02T09:33:34;19.00;83.30
20546;DHT22;10431;50.228;9.112;2023-05-02T09:36:00;19.00;83.20
20546;DHT22;10431;50.228;9.112;2023-05-02T09:38:26;18.90;83.00
20546;DHT22;10431;50.228;9.112;2023-05-02T09:40:52;18.90;82.70
20546;DHT22;10431;50.228;9.112;2023-05-02T09:43:20;18.90;82.50
20546;DHT22;10431;50.228;9.112;2023-05-02T09:45:56;18.90;82.40
20546;DHT22;10431;50.228;9.112;2023-05-02T09:48:22;18.90;82.00
20546;DHT22;10431;50.228;9.112;2023-05-02T09:50:48;18.80;82.00
20546;DHT22;10431;50.228;9.112;2023-05-02T09:53:14;18.90;82.00
20546;DHT22;10431;50.228;9.112;2023-05-02T09:55:40;18.80;81.90
20546;DHT22;10431;50.228;9.112;2023-05-02T09:58:06;18.90;83.00
20546;DHT22;10431;50.228;9.112;2023-05-02T10:03:08;19.00;83.20
20546;DHT22;10431;50.228;9.112;2023-05-02T10:05:37;19.10;83.30
20546;DHT22;10431;50.228;9.112;2023-05-02T10:08:07;19.10;83.30
20546;DHT22;10431;50.228;9.112;2023-05-02T10:10:40;19.20;83.30
20546;DHT22;10431;50.228;9.112;2023-05-02T10:13:09;19.20;83.40
20546;DHT22;10431;50.228;9.112;2023-05-02T10:15:48;19.20;83.50
20546;DHT22;10431;50.228;9.112;2023-05-02T10:18:16;19.10;83.50
20546;DHT22;10431;50.228;9.112;2023-05-02T10:20:58;19.20;83.80
20546;DHT22;10431;50.228;9.112;2023-05-02T10:23:25;19.10;83.90
20546;DHT22;10431;50.228;9.112;2023-05-02T10:25:52;19.10;84.10
20546;DHT22;10431;50.228;9.112;2023-05-02T10:28:18;19.10;84.20
20546;DHT22;10431;50.228;9.112;2023-05-02T10:30:45;19.10;84.40
20546;DHT22;10431;50.228;9.112;2023-05-02T10:33:12;19.10;85.00
20546;DHT22;10431;50.228;9.112;2023-05-02T10:35:38;19.10;84.80
20546;DHT22;10431;50.228;9.112;2023-05-02T10:38:08;19.10;84.80
20546;DHT22;10431;50.228;9.112;2023-05-02T10:40:35;19.20;84.80
20546;DHT22;10431;50.228;9.112;2023-05-02T10:43:01;19.20;84.80
20546;DHT22;10431;50.228;9.112;2023-05-02T10:45:32;19.20;84.90
20546;DHT22;10431;50.228;9.112;2023-05-02T10:56:09;19.20;85.30
20546;DHT22;10431;50.228;9.112;2023-05-02T10:58:35;19.20;85.20
20546;DHT22;10431;50.228;9.112;2023-05-02T11:01:30;19.30;85.30
20546;DHT22;10431;50.228;9.112;2023-05-02T11:03:52;19.30;85.30
20546;DHT22;10431;50.228;9.112;2023-05-02T11:06:18;19.30;85.30
20546;DHT22;10431;50.228;9.112;2023-05-02T11:08:44;19.30;85.40
20546;DHT22;10431;50.228;9.112;2023-05-02T11:13:56;19.30;85.60
20546;DHT22;10431;50.228;9.112;2023-05-02T11:16:22;19.30;86.00
20546;DHT22;10431;50.228;9.112;2023-05-02T11:18:57;19.30;86.10
20546;DHT22;10431;50.228;9.112;2023-05-02T11:21:27;19.30;86.10
20546;DHT22;10431;50.228;9.112;2023-05-02T11:26:39;19.20;85.90
20546;DHT22;10431;50.228;9.112;2023-05-02T11:29:05;19.20;85.70
20546;DHT22;10431;50.228;9.112;2023-05-02T11:34:00;19.20;85.60
20546;DHT22;10431;50.228;9.112;2023-05-02T11:36:30;19.20;85.50
20546;DHT22;10431;50.228;9.112;2023-05-02T11:39:16;19.20;85.60
20546;DHT22;10431;50.228;9.112;2023-05-02T11:41:43;19.20;85.60
20546;DHT22;10431;50.228;9.112;2023-05-02T11:44:09;19.20;85.40
20546;DHT22;10431;50.228;9.112;2023-05-02T11:46:35;19.20;85.30
20546;DHT22;10431;50.228;9.112;2023-05-02T11:49:01;19.20;85.70
20546;DHT22;10431;50.228;9.112;2023-05-02T11:51:27;19.20;85.50
20546;DHT22;10431;50.228;9.112;2023-05-02T11:53:53;19.20;85.50
20546;DHT22;10431;50.228;9.112;2023-05-02T11:56:24;19.20;85.80
20546;DHT22;10431;50.228;9.112;2023-05-02T11:58:57;19.20;85.90
20546;DHT22;10431;50.228;9.112;2023-05-02T12:01:24;19.20;85.50
20546;DHT22;10431;50.228;9.112;2023-05-02T12:03:59;19.20;85.30
20546;DHT22;10431;50.228;9.112;2023-05-02T12:06:26;19.20;85.30
20546;DHT22;10431;50.228;9.112;2023-05-02T12:08:52;19.30;85.30
20546;DHT22;10431;50.228;9.112;2023-05-02T12:11:30;19.30;85.30
20546;DHT22;10431;50.228;9.112;2023-05-02T12:13:56;19.30;85.30
20546;DHT22;10431;50.228;9.112;2023-05-02T12:16:22;19.30;85.30
20546;DHT22;10431;50.228;9.112;2023-05-02T12:18:48;19.20;85.30
20546;DHT22;10431;50.228;9.112;2023-05-02T12:21:15;19.30;85.60
20546;DHT22;10431;50.228;9.112;2023-05-02T12:23:41;19.30;85.70
20546;DHT22;10431;50.228;9.112;2023-05-02T12:26:23;19.20;85.60
20546;DHT22;10431;50.228;9.112;2023-05-02T12:28:54;19.20;85.60
20546;DHT22;10431;50.228;9.112;2023-05-02T12:31:21;19.20;85.80
20546;DHT22;10431;50.228;9.112;2023-05-02T12:33:47;19.20;85.80
20546;DHT22;10431;50.228;9.112;2023-05-02T12:36:15;19.30;86.30
20546;DHT22;10431;50.228;9.112;2023-05-02T12:38:48;19.30;86.40
20546;DHT22;10431;50.228;9.112;2023-05-02T12:41:18;19.20;85.60
20546;DHT22;10431;50.228;9.112;2023-05-02T12:43:45;19.10;84.70
20546;DHT22;10431;50.228;9.112;2023-05-02T12:46:11;19.10;84.80
20546;DHT22;10431;50.228;9.112;2023-05-02T12:48:37;19.10;84.60
20546;DHT22;10431;50.228;9.112;2023-05-02T12:51:03;19.10;83.80
20546;DHT22;10431;50.228;9.112;2023-05-02T12:53:42;19.10;83.40
20546;DHT22;10431;50.228;9.112;2023-05-02T12:56:09;19.20;83.30
20546;DHT22;10431;50.228;9.112;2023-05-02T12:58:39;19.20;83.30
20546;DHT22;10431;50.228;9.112;2023-05-02T13:01:06;19.20;83.30
20546;DHT22;10431;50.228;9.112;2023-05-02T13:03:32;19.20;83.50
20546;DHT22;10431;50.228;9.112;2023-05-02T13:05:58;19.30;83.70
20546;DHT22;10431;50.228;9.112;2023-05-02T13:08:24;19.30;84.00
20546;DHT22;10431;50.228;9.112;2023-05-02T13:10:50;19.30;84.10
20546;DHT22;10431;50.228;9.112;2023-05-02T13:13:16;19.30;84.10
20546;DHT22;10431;50.228;9.112;2023-05-02T13:15:42;19.20;84.10
20546;DHT22;10431;50.228;9.112;2023-05-02T13:18:08;19.20;84.20
20546;DHT22;10431;50.228;9.112;2023-05-02T13:20:34;19.20;85.00
20546;DHT22;10431;50.228;9.112;2023-05-02T13:23:00;19.20;84.40
20546;DHT22;10431;50.228;9.112;2023-05-02T13:25:26;19.20;84.50
20546;DHT22;10431;50.228;9.112;2023-05-02T13:27:52;19.20;84.60
20546;DHT22;10431;50.228;9.112;2023-05-02T13:30:18;19.20;84.50
20546;DHT22;10431;50.228;9.112;2023-05-02T13:32:44;19.20;84.50
20546;DHT22;10431;50.228;9.112;2023-05-02T13:35:10;19.20;84.60
20546;DHT22;10431;50.228;9.112;2023-05-02T13:37:39;19.20;84.60
20546;DHT22;10431;50.228;9.112;2023-05-02T13:40:05;19.20;84.70
20546;DHT22;10431;50.228;9.112;2023-05-02T13:42:31;19.20;84.80
20546;DHT22;10431;50.228;9.112;2023-05-02T13:44:57;19.20;84.80
20546;DHT22;10431;50.228;9.112;2023-05-02T13:47:23;19.20;84.80
20546;DHT22;10431;50.228;9.112;2023-05-02T13:49:49;19.20;84.80
20546;DHT22;10431;50.228;9.112;2023-05-02T13:52:15;19.20;84.80
20546;DHT22;10431;50.228;9.112;2023-05-02T13:54:41;19.20;84.90
20546;DHT22;10431;50.228;9.112;2023-05-02T13:57:07;19.20;84.90
20546;DHT22;10431;50.228;9.112;2023-05-02T13:59:33;19.20;84.90
20546;DHT22;10431;50.228;9.112;2023-05-02T14:01:59;19.20;84.90
20546;DHT22;10431;50.228;9.112;2023-05-02T14:04:25;19.20;85.00
20546;DHT22;10431;50.228;9.112;2023-05-02T14:06:51;19.20;85.00
20546;DHT22;10431;50.228;9.112;2023-05-02T14:09:17;19.20;85.00
20546;DHT22;10431;50.228;9.112;2023-05-02T14:11:43;19.10;85.00
20546;DHT22;10431;50.228;9.112;2023-05-02T14:14:12;19.10;85.00
20546;DHT22;10431;50.228;9.112;2023-05-02T14:16:38;19.20;85.10
20546;DHT22;10431;50.228;9.112;2023-05-02T14:19:04;19.10;85.00
20546;DHT22;10431;50.228;9.112;2023-05-02T14:21:30;19.10;85.00
20546;DHT22;10431;50.228;9.112;2023-05-02T14:23:56;19.20;85.10
20546;DHT22;10431;50.228;9.112;2023-05-02T14:26:23;19.10;85.10
20546;DHT22;10431;50.228;9.112;2023-05-02T14:28:49;19.10;85.10
20546;DHT22;10431;50.228;9.112;2023-05-02T14:31:16;19.10;85.10
20546;DHT22;10431;50.228;9.112;2023-05-02T14:33:42;19.10;85.20
20546;DHT22;10431;50.228;9.112;2023-05-02T14:36:08;19.10;85.10
20546;DHT22;10431;50.228;9.112;2023-05-02T14:38:34;19.20;85.30
20546;DHT22;10431;50.228;9.112;2023-05-02T14:41:00;19.10;85.20
20546;DHT22;10431;50.228;9.112;2023-05-02T14:43:27;19.10;85.20
20546;DHT22;10431;50.228;9.112;2023-05-02T14:45:53;19.10;85.20
20546;DHT22;10431;50.228;9.112;2023-05-02T14:48:21;19.10;85.20
20546;DHT22;10431;50.228;9.112;2023-05-02T14:50:47;19.10;85.20
20546;DHT22;10431;50.228;9.112;2023-05-02T14:53:13;19.10;85.30
20546;DHT22;10431;50.228;9.112;2023-05-02T14:55:39;19.10;85.30
20546;DHT22;10431;50.228;9.112;2023-05-02T14:58:05;19.10;85.20
20546;DHT22;10431;50.228;9.112;2023-05-02T15:00:33;19.10;85.30
20546;DHT22;10431;50.228;9.112;2023-05-02T15:03:00;19.10;85.30
20546;DHT22;10431;50.228;9.112;2023-05-02T15:05:26;19.10;85.30
20546;DHT22;10431;50.228;9.112;2023-05-02T15:07:52;19.10;85.30
20546;DHT22;10431;50.228;9.112;2023-05-02T15:10:18;19.10;85.30
20546;DHT22;10431;50.228;9.112;2023-05-02T15:12:44;19.10;85.30
20546;DHT22;10431;50.228;9.112;2023-05-02T15:15:12;19.10;85.50
20546;DHT22;10431;50.228;9.112;2023-05-02T15:17:38;19.20;85.60
20546;DHT22;10431;50.228;9.112;2023-05-02T15:20:04;19.20;85.50
20546;DHT22;10431;50.228;9.112;2023-05-02T15:22:30;19.20;85.50
20546;DHT22;10431;50.228;9.112;2023-05-02T15:24:56;19.20;85.50
20546;DHT22;10431;50.228;9.112;2023-05-02T15:27:22;19.20;85.60
20546;DHT22;10431;50.228;9.112;2023-05-02T15:29:48;19.20;86.00
20546;DHT22;10431;50.228;9.112;2023-05-02T15:32:15;19.20;86.00
20546;DHT22;10431;50.228;9.112;2023-05-02T15:34:41;19.20;85.80
20546;DHT22;10431;50.228;9.112;2023-05-02T15:37:07;19.20;85.70
20546;DHT22;10431;50.228;9.112;2023-05-02T15:39:33;19.20;85.70
20546;DHT22;10431;50.228;9.112;2023-05-02T15:42:02;19.20;85.60
20546;DHT22;10431;50.228;9.112;2023-05-02T15:44:29;19.20;85.60
20546;DHT22;10431;50.228;9.112;2023-05-02T15:46:55;19.20;85.60
20546;DHT22;10431;50.228;9.112;2023-05-02T15:49:22;19.20;85.70
20546;DHT22;10431;50.228;9.112;2023-05-02T15:51:49;19.20;85.70
20546;DHT22;10431;50.228;9.112;2023-05-02T15:54:16;19.20;85.60
20546;DHT22;10431;50.228;9.112;2023-05-02T15:56:42;19.20;85.70
20546;DHT22;10431;50.228;9.112;2023-05-02T15:59:08;19.20;85.90
20546;DHT22;10431;50.228;9.112;2023-05-02T16:01:34;19.20;85.90
20546;DHT22;10431;50.228;9.112;2023-05-02T16:04:00;19.20;85.90
20546;DHT22;10431;50.228;9.112;2023-05-02T16:06:27;19.20;85.90
20546;DHT22;10431;50.228;9.112;2023-05-02T16:08:54;19.20;85.90
20546;DHT22;10431;50.228;9.112;2023-05-02T16:11:20;19.20;85.90
20546;DHT22;10431;50.228;9.112;2023-05-02T16:13:46;19.10;85.60
20546;DHT22;10431;50.228;9.112;2023-05-02T16:16:12;19.10;86.30
20546;DHT22;10431;50.228;9.112;2023-05-02T16:18:39;19.10;86.40
20546;DHT22;10431;50.228;9.112;2023-05-02T16:21:05;19.10;86.20
20546;DHT22;10431;50.228;9.112;2023-05-02T16:23:31;19.20;86.30
20546;DHT22;10431;50.228;9.112;2023-05-02T16:25:58;19.20;86.20
20546;DHT22;10431;50.228;9.112;2023-05-02T16:28:24;19.20;86.10